Time;durP1;ratioP1;P1;durP2;ratioP2;P2;SDS_P1;SDS_P2;PMS_P1;PMS_P2;Temp;Humidity;BMP_temperature;BMP_pressure;BME280_temperature;BME280_humidity;BME280_pressure;Samples;Min_cycle;Max_cycle;Signal;HPM_P1;HPM_P2
2023/01/09 00:02:16;;;;;;;;;0.75;0.75;;;;;7.90;79.39;99253.59;5051192;28;11302;-68
2023/01/09 00:04:42;;;;;;;;;1.00;1.00;;;;;7.90;79.74;99258.13;5049865;28;10438;-67
2023/01/09 00:07:09;;;;;;;;;0.25;0.25;;;;;7.88;79.27;99241.44;5050284;28;10455;-68
2023/01/09 00:09:35;;;;;;;;;1.00;1.00;;;;;7.87;78.98;99251.31;5052355;28;10322;-68
2023/01/09 00:12:02;;;;;;;;;0.00;0.00;;;;;7.89;78.56;99251.09;5069224;28;10375;-66
2023/01/09 00:14:28;;;;;;;;;0.75;0.75;;;;;7.86;78.87;99254.25;5069510;28;10359;-67
2023/01/09 00:16:55;;;;;;;;;0.25;0.25;;;;;7.83;78.59;99244.75;5064542;28;10500;-68
2023/01/09 00:19:21;;;;;;;;;1.00;0.00;;;;;7.81;78.53;99246.81;5069752;28;10405;-68
2023/01/09 00:21:48;;;;;;;;;0.00;0.00;;;;;7.79;78.94;99243.56;5068462;28;10397;-66
2023/01/09 00:24:14;;;;;;;;;0.00;0.00;;;;;7.76;78.54;99254.69;5068840;28;10365;-69
2023/01/09 00:26:41;;;;;;;;;1.00;1.00;;;;;7.68;78.29;99260.28;5068822;28;10538;-68
2023/01/09 00:29:09;;;;;;;;;0.00;0.00;;;;;7.72;78.29;99256.16;5065226;28;10452;-68
2023/01/09 00:31:36;;;;;;;;;0.75;0.75;;;;;7.71;78.12;99254.50;5050228;28;10427;-67
2023/01/09 00:34:06;;;;;;;;;0.25;0.00;;;;;7.74;78.20;99253.25;5066406;28;10428;-66
2023/01/09 00:36:32;;;;;;;;;0.75;0.75;;;;;7.71;77.76;99259.06;5069779;28;10422;-66
2023/01/09 00:38:59;;;;;;;;;0.00;0.00;;;;;7.69;77.88;99264.59;5068951;28;10548;-67
2023/01/09 00:41:32;;;;;;;;;0.00;0.00;;;;;7.61;77.49;99256.81;5072186;28;10497;-65
2023/01/09 00:44:05;;;;;;;;;0.00;0.00;;;;;7.57;77.59;99253.75;5067594;28;10513;-67
2023/01/09 00:46:35;;;;;;;;;0.00;0.00;;;;;7.57;77.55;99248.38;5060782;28;10508;-66
2023/01/09 00:49:04;;;;;;;;;0.00;0.00;;;;;7.60;77.35;99252.50;5053365;28;10494;-65
2023/01/09 00:51:30;;;;;;;;;0.00;0.00;;;;;7.64;77.62;99253.72;5053356;28;10432;-65
2023/01/09 00:53:57;;;;;;;;;0.00;0.00;;;;;7.62;77.33;99251.28;5069211;28;10493;-66
2023/01/09 00:56:24;;;;;;;;;1.00;0.00;;;;;7.60;76.86;99249.84;5072890;28;10497;-66
2023/01/09 00:58:52;;;;;;;;;0.50;0.00;;;;;7.57;77.15;99251.06;5071895;28;10416;-66
2023/01/09 01:01:18;;;;;;;;;0.00;0.00;;;;;7.59;77.08;99251.69;5055815;28;10432;-65
2023/01/09 01:03:45;;;;;;;;;0.00;0.00;;;;;7.58;77.08;99241.22;5053259;28;10444;-68
2023/01/09 01:08:56;;;;;;;;;0.00;0.00;;;;;7.59;77.49;99253.56;5069132;28;11161;-65
2023/01/09 01:11:23;;;;;;;;;0.00;0.00;;;;;7.58;76.66;99243.88;5066823;28;10567;-65
2023/01/09 01:13:50;;;;;;;;;1.00;0.00;;;;;7.58;77.18;99242.03;5052959;28;10310;-66
2023/01/09 01:16:17;;;;;;;;;0.00;0.00;;;;;7.57;76.98;99250.25;5059186;28;10657;-65
2023/01/09 01:18:43;;;;;;;;;0.00;0.00;;;;;7.58;76.94;99238.53;5071864;28;10595;-67
2023/01/09 01:21:12;;;;;;;;;5.00;1.00;;;;;7.55;76.45;99252.34;5072818;28;10688;-65
2023/01/09 01:23:38;;;;;;;;;0.00;0.00;;;;;7.52;76.25;99242.03;5058680;28;10518;-65
2023/01/09 01:26:07;;;;;;;;;1.75;1.00;;;;;7.52;76.89;99252.75;5056367;28;10519;-64
2023/01/09 01:28:33;;;;;;;;;1.00;0.75;;;;;7.46;76.71;99257.13;5054834;28;10633;-65
2023/01/09 01:31:00;;;;;;;;;1.25;0.75;;;;;7.43;76.93;99255.69;5052587;28;10500;-67
2023/01/09 01:33:27;;;;;;;;;1.00;1.00;;;;;7.37;76.83;99261.91;5053871;28;10495;-67
2023/01/09 01:36:00;;;;;;;;;2.00;0.00;;;;;7.38;77.40;99254.69;5056609;28;10502;-68
2023/01/09 01:38:28;;;;;;;;;0.75;0.75;;;;;7.33;77.25;99246.44;5071287;28;10597;-68
2023/01/09 01:40:55;;;;;;;;;1.00;1.00;;;;;7.33;77.25;99255.31;5068610;28;10604;-68
2023/01/09 01:43:22;;;;;;;;;0.25;0.25;;;;;7.30;77.70;99268.31;5060313;28;11232;-68
2023/01/09 01:45:48;;;;;;;;;0.50;0.00;;;;;7.26;77.78;99270.56;5053189;28;10435;-67
2023/01/09 01:48:21;;;;;;;;;1.75;1.75;;;;;7.27;77.69;99282.91;5053652;28;10436;-70
2023/01/09 01:50:59;;;;;;;;;1.00;1.00;;;;;7.23;77.56;99286.22;5052340;28;10571;-67
2023/01/09 01:53:40;;;;;;;;;1.25;1.25;;;;;7.23;78.08;99289.72;5051402;28;10574;-69
2023/01/09 01:56:14;;;;;;;;;0.25;0.00;;;;;7.16;77.77;99289.72;5051905;28;10570;-67
2023/01/09 01:58:52;;;;;;;;;1.25;1.25;;;;;7.09;77.61;99290.78;5061048;28;10528;-66
2023/01/09 02:01:19;;;;;;;;;1.00;1.00;;;;;6.98;77.99;99289.59;5069224;28;11369;-65
2023/01/09 02:03:47;;;;;;;;;1.00;1.00;;;;;6.96;78.18;99302.34;5054630;28;11306;-65
2023/01/09 02:06:14;;;;;;;;;4.00;2.00;;;;;6.99;78.62;99287.72;5051481;28;10562;-65
2023/01/09 02:08:42;;;;;;;;;0.25;0.00;;;;;7.04;78.73;99290.59;5060951;28;10732;-66
2023/01/09 02:11:11;;;;;;;;;2.00;1.00;;;;;6.99;78.87;99283.19;5071666;28;10649;-64
2023/01/09 02:13:39;;;;;;;;;2.50;0.25;;;;;7.00;78.56;99284.03;5070821;28;10593;-64
2023/01/09 02:16:18;;;;;;;;;2.00;0.25;;;;;6.98;78.63;99278.88;5068032;28;10638;-66
2023/01/09 02:18:47;;;;;;;;;0.75;0.75;;;;;6.94;78.99;99285.69;5064075;28;10526;-65
2023/01/09 02:21:57;;;;;;;;;1.25;1.00;;;;;6.92;78.88;99285.88;5057174;28;11461;-67
2023/01/09 02:24:54;;;;;;;;;1.50;1.00;;;;;6.87;78.73;99287.53;5006495;28;10653;-66
2023/01/09 02:27:58;;;;;;;;;2.00;2.00;;;;;6.84;78.57;99285.28;5054679;28;10868;-66
2023/01/09 02:30:31;;;;;;;;;1.50;1.50;;;;;6.88;78.92;99279.31;5071431;28;10740;-65
2023/01/09 02:33:14;;;;;;;;;1.00;1.00;;;;;6.90;79.48;99295.16;5060527;28;10802;-66
2023/01/09 02:35:51;;;;;;;;;5.00;2.00;;;;;6.82;79.15;99288.16;5050691;28;10906;-64
2023/01/09 02:38:55;;;;;;;;;2.50;1.25;;;;;6.87;79.16;99292.88;5051069;28;10733;-65
2023/01/09 02:41:26;;;;;;;;;1.00;1.00;;;;;6.88;79.64;99292.66;5051399;28;10639;-66
2023/01/09 02:44:12;;;;;;;;;1.75;1.00;;;;;6.87;78.82;99291.03;5066904;28;10619;-66
2023/01/09 02:46:38;;;;;;;;;5.00;2.25;;;;;6.85;79.25;99282.41;5058482;28;10716;-66
2023/01/09 02:49:06;;;;;;;;;1.00;1.00;;;;;6.87;78.93;99276.84;5055039;28;10735;-68
2023/01/09 02:51:49;;;;;;;;;0.75;0.75;;;;;6.88;78.83;99281.16;5054153;28;10554;-66
2023/01/09 02:54:28;;;;;;;;;4.25;2.00;;;;;6.87;78.82;99283.00;5063600;28;10594;-67
2023/01/09 02:57:17;;;;;;;;;4.50;1.25;;;;;6.85;79.39;99278.91;5051232;28;10791;-68
2023/01/09 03:00:00;;;;;;;;;2.00;2.00;;;;;6.83;79.79;99265.75;5042646;28;10890;-68
2023/01/09 03:02:36;;;;;;;;;1.00;1.00;;;;;6.83;79.58;99264.91;5054025;28;10744;-68
2023/01/09 03:05:14;;;;;;;;;4.00;4.00;;;;;6.81;79.42;99275.84;5058599;28;10820;-67
2023/01/09 03:07:44;;;;;;;;;4.75;4.00;;;;;6.81;79.70;99281.19;5065140;28;10727;-68
2023/01/09 03:10:25;;;;;;;;;2.50;1.50;;;;;6.87;80.16;99272.31;5067999;28;11029;-66
2023/01/09 03:12:54;;;;;;;;;1.00;1.00;;;;;6.89;80.04;99269.44;5070254;28;10760;-70
2023/01/09 03:15:27;;;;;;;;;5.25;4.50;;;;;6.84;79.71;99274.56;5068909;28;10706;-69
2023/01/09 03:17:55;;;;;;;;;3.00;3.00;;;;;6.84;79.94;99267.38;5063459;28;10911;-68
2023/01/09 03:20:26;;;;;;;;;4.75;4.00;;;;;6.84;79.55;99271.91;5053922;28;10846;-68
2023/01/09 03:22:58;;;;;;;;;5.00;4.25;;;;;6.79;80.01;99275.22;5069772;28;10829;-68
2023/01/09 03:25:26;;;;;;;;;5.25;5.00;;;;;6.79;79.71;99266.38;5070451;28;11018;-68
2023/01/09 03:27:57;;;;;;;;;5.50;4.25;;;;;6.82;79.26;99265.97;5057564;28;10718;-68
2023/01/09 03:30:26;;;;;;;;;4.75;4.50;;;;;6.70;80.64;99260.41;5050533;28;10753;-68
2023/01/09 03:32:53;;;;;;;;;8.00;6.00;;;;;6.73;79.70;99259.19;5056454;28;10933;-69
2023/01/09 03:35:19;;;;;;;;;4.75;4.75;;;;;6.78;80.05;99276.25;5070403;28;11018;-68
2023/01/09 03:37:46;;;;;;;;;8.75;8.75;;;;;6.78;79.51;99278.91;5056272;28;11029;-69
2023/01/09 03:40:12;;;;;;;;;8.00;7.25;;;;;6.77;79.75;99281.81;5050339;28;10949;-68
2023/01/09 03:42:39;;;;;;;;;6.00;5.00;;;;;6.79;80.39;99277.06;5055706;28;10918;-68
2023/01/09 03:45:06;;;;;;;;;3.50;3.50;;;;;6.80;80.40;99270.69;5069224;28;10986;-66
2023/01/09 03:47:32;;;;;;;;;3.75;2.00;;;;;6.82;79.75;99271.31;5055766;28;11404;-68
2023/01/09 03:49:59;;;;;;;;;7.00;5.00;;;;;6.76;79.80;99270.25;5054599;28;10681;-67
2023/01/09 03:52:25;;;;;;;;;4.50;4.00;;;;;6.79;80.06;99275.22;5050489;28;10800;-64
2023/01/09 03:54:52;;;;;;;;;4.25;1.25;;;;;6.80;79.79;99284.06;5049962;28;10746;-66
2023/01/09 03:57:18;;;;;;;;;5.50;4.50;;;;;6.75;79.21;99284.69;5052537;28;10621;-66
2023/01/09 03:59:45;;;;;;;;;3.50;2.00;;;;;6.75;79.56;99286.53;5061913;28;10808;-66
2023/01/09 04:02:11;;;;;;;;;3.25;2.00;;;;;6.68;79.51;99284.69;5064175;28;10902;-65
2023/01/09 04:04:38;;;;;;;;;4.00;4.00;;;;;6.66;79.96;99289.41;5062512;28;10861;-64
2023/01/09 04:07:04;;;;;;;;;6.25;4.00;;;;;6.68;79.59;99287.38;5050498;28;10889;-66
2023/01/09 04:09:31;;;;;;;;;5.00;4.25;;;;;6.72;79.25;99294.97;5052931;28;10884;-66
2023/01/09 04:11:57;;;;;;;;;4.50;4.50;;;;;6.68;79.03;99289.19;5066543;28;10738;-67
2023/01/09 04:14:23;;;;;;;;;3.25;3.25;;;;;6.67;79.53;99284.88;5062986;28;10955;-66
2023/01/09 04:16:50;;;;;;;;;9.00;7.50;;;;;6.59;79.70;99283.25;5072832;28;11038;-65
2023/01/09 04:19:16;;;;;;;;;9.50;8.25;;;;;6.54;80.07;99277.69;5072180;28;11170;-66
2023/01/09 04:21:43;;;;;;;;;9.00;8.00;;;;;6.50;79.96;99284.50;5058794;28;10956;-66
2023/01/09 04:24:09;;;;;;;;;14.00;9.25;;;;;6.49;79.97;99280.19;5053625;28;11137;-66
2023/01/09 04:26:35;;;;;;;;;8.00;6.00;;;;;6.50;80.25;99294.38;5053535;28;11848;-66
2023/01/09 04:29:02;;;;;;;;;11.00;10.50;;;;;6.49;80.11;99287.38;5066661;28;11148;-67
2023/01/09 04:31:28;;;;;;;;;8.25;7.75;;;;;6.48;80.31;99289.22;5055991;28;11563;-64
2023/01/09 04:33:55;;;;;;;;;12.50;9.25;;;;;6.46;79.37;99290.47;5053500;28;11216;-65
2023/01/09 04:36:21;;;;;;;;;9.00;8.25;;;;;6.46;80.01;99291.28;5053023;28;11260;-66
2023/01/09 04:38:48;;;;;;;;;8.00;7.00;;;;;6.49;80.28;99293.53;5061538;28;11246;-65
2023/01/09 04:41:47;;;;;;;;;9.25;7.50;;;;;6.49;79.61;99288.19;5073547;28;11150;-68
2023/01/09 04:44:02;;;;;;;;;10.00;10.00;;;;;6.39;80.01;99288.59;5072022;28;11113;-64
2023/01/09 04:46:28;;;;;;;;;6.00;6.00;;;;;6.42;80.18;99284.69;5073325;28;11011;-68
2023/01/09 04:48:55;;;;;;;;;5.00;5.00;;;;;6.48;80.18;99281.19;5064636;28;11057;-66
2023/01/09 04:51:21;;;;;;;;;7.00;6.00;;;;;6.50;80.73;99283.69;5057548;28;10939;-68
2023/01/09 04:53:48;;;;;;;;;6.75;5.50;;;;;6.44;80.34;99275.47;5058627;28;11062;-69
2023/01/09 04:56:14;;;;;;;;;10.00;7.00;;;;;6.39;80.74;99283.25;5072905;28;10838;-69
2023/01/09 04:58:41;;;;;;;;;4.00;4.00;;;;;6.44;80.69;99280.81;5072231;28;10932;-69
2023/01/09 05:01:07;;;;;;;;;5.50;5.50;;;;;6.51;80.09;99271.94;5059716;28;10823;-69
2023/01/09 05:03:34;;;;;;;;;6.25;5.00;;;;;6.53;80.29;99278.75;5059564;28;10922;-69
2023/01/09 05:06:00;;;;;;;;;7.75;7.75;;;;;6.53;80.21;99275.25;5070500;28;11028;-68
2023/01/09 05:08:26;;;;;;;;;5.75;5.75;;;;;6.55;80.67;99291.88;5072052;28;10978;-68
2023/01/09 05:10:53;;;;;;;;;6.50;4.00;;;;;6.44;79.87;99274.59;5061921;28;10944;-68
2023/01/09 05:13:19;;;;;;;;;6.50;5.00;;;;;6.42;80.36;99274.81;5051990;28;10944;-68
2023/01/09 05:15:46;;;;;;;;;8.00;4.00;;;;;6.41;80.43;99275.88;5052980;28;10935;-67
2023/01/09 05:18:12;;;;;;;;;5.00;5.00;;;;;6.37;80.21;99279.16;5062850;28;10812;-68
2023/01/09 05:20:38;;;;;;;;;8.00;6.00;;;;;6.38;80.49;99278.94;5067071;28;10898;-68
2023/01/09 05:23:05;;;;;;;;;4.50;4.50;;;;;6.44;80.44;99278.13;5069986;28;11078;-69
2023/01/09 05:25:31;;;;;;;;;7.50;5.75;;;;;6.47;80.34;99276.88;5072540;28;10982;-69
2023/01/09 05:28:00;;;;;;;;;4.50;4.50;;;;;6.49;79.81;99274.03;5064339;28;10856;-68
2023/01/09 05:30:26;;;;;;;;;8.00;5.00;;;;;6.46;80.09;99269.91;5059162;28;11744;-70
2023/01/09 05:32:53;;;;;;;;;5.50;5.50;;;;;6.47;80.50;99278.72;5071655;28;10931;-68
2023/01/09 05:35:21;;;;;;;;;4.00;4.00;;;;;6.47;81.05;99270.72;5072276;28;11063;-68
2023/01/09 05:37:47;;;;;;;;;5.50;5.50;;;;;6.47;80.17;99273.38;5067872;28;11487;-68
2023/01/09 05:40:14;;;;;;;;;4.75;4.75;;;;;6.38;80.03;99264.75;5069727;28;10983;-68
2023/01/09 05:42:42;;;;;;;;;8.00;8.00;;;;;6.38;80.34;99270.91;5057056;28;10995;-67
2023/01/09 05:45:09;;;;;;;;;3.50;3.50;;;;;6.39;79.99;99264.53;5053423;28;11006;-68
2023/01/09 05:47:35;;;;;;;;;3.50;3.50;;;;;6.39;80.51;99271.75;5063312;28;10850;-65
2023/01/09 05:50:03;;;;;;;;;2.00;1.50;;;;;6.40;80.17;99260.00;5052227;28;10885;-65
2023/01/09 05:52:29;;;;;;;;;7.25;3.50;;;;;6.34;80.33;99261.66;5054995;28;10958;-65
2023/01/09 05:54:55;;;;;;;;;7.00;2.00;;;;;6.29;80.54;99257.97;5072113;28;11666;-65
2023/01/09 05:57:22;;;;;;;;;7.00;5.00;;;;;6.36;80.50;99264.13;5056693;28;11570;-65
2023/01/09 05:59:48;;;;;;;;;4.50;2.00;;;;;6.34;80.63;99263.53;5052091;28;11178;-64
2023/01/09 06:02:15;;;;;;;;;2.00;2.00;;;;;6.32;80.16;99254.88;5063006;28;10938;-66
2023/01/09 06:04:42;;;;;;;;;2.50;2.50;;;;;6.34;80.87;99259.00;5059188;28;10949;-68
2023/01/09 06:07:09;;;;;;;;;2.75;2.00;;;;;6.38;79.88;99265.56;5069309;28;10949;-69
2023/01/09 06:09:35;;;;;;;;;3.00;3.00;;;;;6.41;80.07;99267.84;5051842;28;11086;-68
2023/01/09 06:12:02;;;;;;;;;4.00;2.00;;;;;6.45;80.21;99260.25;5052018;28;11077;-68
2023/01/09 06:14:28;;;;;;;;;2.50;2.00;;;;;6.47;80.80;99266.19;5071147;28;10979;-69
2023/01/09 06:16:55;;;;;;;;;4.50;3.00;;;;;6.49;80.40;99258.81;5071545;28;10921;-66
2023/01/09 06:19:21;;;;;;;;;4.00;4.00;;;;;6.50;80.25;99256.94;5055230;28;11052;-68
2023/01/09 06:21:48;;;;;;;;;1.25;1.25;;;;;6.51;80.69;99256.72;5053410;28;11017;-67
2023/01/09 06:24:14;;;;;;;;;0.75;0.75;;;;;6.55;81.32;99249.13;5060831;28;10722;-67
2023/01/09 06:26:40;;;;;;;;;4.50;1.75;;;;;6.54;81.12;99255.50;5051131;28;11646;-67
2023/01/09 06:29:07;;;;;;;;;3.00;2.00;;;;;6.57;81.36;99263.13;5067269;28;10860;-68
2023/01/09 06:31:34;;;;;;;;;1.75;0.75;;;;;6.58;81.73;99260.22;5071132;28;10793;-68
2023/01/09 06:34:00;;;;;;;;;4.00;2.00;;;;;6.57;81.62;99257.78;5059144;28;10731;-68
2023/01/09 06:36:27;;;;;;;;;2.00;1.00;;;;;6.56;81.76;99254.28;5067531;28;10920;-68
2023/01/09 06:38:53;;;;;;;;;4.00;2.00;;;;;6.53;80.99;99251.19;5062267;28;10945;-68
2023/01/09 06:41:19;;;;;;;;;2.00;2.00;;;;;6.51;81.11;99245.22;5059810;28;10799;-70
2023/01/09 06:43:46;;;;;;;;;1.00;1.00;;;;;6.51;82.00;99247.88;5069414;28;11601;-69
2023/01/09 06:46:12;;;;;;;;;2.00;2.00;;;;;6.56;81.72;99238.22;5060192;28;10812;-67
2023/01/09 06:48:39;;;;;;;;;3.25;2.50;;;;;6.54;81.48;99247.47;5065832;28;11691;-68
2023/01/09 06:51:05;;;;;;;;;4.00;1.75;;;;;6.54;82.24;99236.78;5066582;28;10780;-68
2023/01/09 06:53:33;;;;;;;;;4.75;3.00;;;;;6.57;82.26;99245.22;5054736;28;10979;-68
2023/01/09 06:56:01;;;;;;;;;2.75;2.75;;;;;6.56;82.12;99240.06;5059473;28;10720;-69
2023/01/09 06:58:28;;;;;;;;;2.50;2.00;;;;;6.54;81.70;99244.81;5050553;28;10896;-68
2023/01/09 07:00:55;;;;;;;;;2.00;2.00;;;;;6.55;82.39;99244.59;5054946;28;10919;-66
2023/01/09 07:03:21;;;;;;;;;2.00;2.00;;;;;6.59;82.56;99245.00;5059927;28;10971;-68
2023/01/09 07:05:48;;;;;;;;;1.50;1.25;;;;;6.62;82.21;99236.56;5057557;28;10848;-68
2023/01/09 07:08:15;;;;;;;;;4.75;2.00;;;;;6.63;82.26;99233.69;5064058;28;10782;-68
2023/01/09 07:10:42;;;;;;;;;4.00;2.00;;;;;6.66;82.20;99238.63;5070260;28;10824;-67
2023/01/09 07:13:09;;;;;;;;;3.75;2.00;;;;;6.72;82.67;99241.47;5069566;28;10783;-66
2023/01/09 07:15:36;;;;;;;;;5.00;5.00;;;;;6.72;82.06;99244.97;5070193;28;10724;-68
2023/01/09 07:18:03;;;;;;;;;5.25;4.75;;;;;6.72;81.87;99247.66;5061230;28;10796;-67
2023/01/09 07:20:29;;;;;;;;;6.25;2.00;;;;;6.71;82.10;99251.34;5050122;28;11018;-66
2023/01/09 07:22:56;;;;;;;;;5.50;4.00;;;;;6.71;82.53;99253.22;5065628;28;10718;-67
2023/01/09 07:25:22;;;;;;;;;5.00;5.00;;;;;6.69;82.34;99242.75;5069986;28;11519;-68
2023/01/09 07:27:49;;;;;;;;;5.00;4.00;;;;;6.74;83.11;99253.63;5069771;28;10794;-68
2023/01/09 07:30:16;;;;;;;;;5.50;5.00;;;;;6.71;82.84;99258.56;5070597;28;10777;-66
2023/01/09 07:32:42;;;;;;;;;7.25;6.00;;;;;6.69;82.86;99253.44;5064472;28;11624;-68
2023/01/09 07:35:09;;;;;;;;;6.50;5.50;;;;;6.69;83.21;99253.44;5053500;28;10814;-66
2023/01/09 07:37:36;;;;;;;;;5.75;5.25;;;;;6.73;83.50;99267.22;5050454;28;11101;-66
2023/01/09 07:40:03;;;;;;;;;9.50;7.50;;;;;6.74;83.57;99258.97;5050089;28;10999;-66
2023/01/09 07:42:29;;;;;;;;;4.00;4.00;;;;;6.77;83.25;99261.25;5054285;28;10947;-66
2023/01/09 07:44:56;;;;;;;;;7.75;5.50;;;;;6.78;83.16;99270.06;5069826;28;10808;-67
2023/01/09 07:47:22;;;;;;;;;7.25;4.75;;;;;6.82;83.53;99257.94;5066749;28;10682;-67
2023/01/09 07:49:49;;;;;;;;;5.50;5.50;;;;;6.84;83.21;99262.03;5050954;28;10860;-66
2023/01/09 07:52:15;;;;;;;;;3.00;2.50;;;;;6.90;83.63;99261.19;5065735;28;10818;-65
2023/01/09 07:54:41;;;;;;;;;5.00;5.00;;;;;6.94;82.88;99266.97;5074141;28;10704;-68
2023/01/09 07:57:08;;;;;;;;;3.00;3.00;;;;;6.99;83.11;99272.50;5072521;28;10788;-69
2023/01/09 07:59:34;;;;;;;;;7.50;5.00;;;;;7.01;82.95;99277.63;5054379;28;10792;-67
2023/01/09 08:02:04;;;;;;;;;5.25;4.75;;;;;7.04;83.14;99287.91;5054030;28;10741;-68
2023/01/09 08:04:30;;;;;;;;;3.25;3.25;;;;;7.07;82.85;99292.84;5073514;28;10885;-68
2023/01/09 08:06:57;;;;;;;;;5.50;5.50;;;;;7.06;82.83;99300.06;5069465;28;11452;-68
2023/01/09 08:09:23;;;;;;;;;6.50;6.00;;;;;7.06;83.21;99305.41;5071805;28;10930;-69
2023/01/09 08:11:50;;;;;;;;;8.75;8.25;;;;;7.10;83.15;99313.84;5074079;28;11428;-67
2023/01/09 08:14:16;;;;;;;;;5.00;5.00;;;;;7.14;83.72;99321.25;5072554;28;10813;-69
2023/01/09 08:16:43;;;;;;;;;3.50;3.50;;;;;7.20;83.02;99314.22;5073816;28;10721;-68
2023/01/09 08:19:10;;;;;;;;;5.00;3.00;;;;;7.23;82.96;99319.16;5058361;28;11405;-69
2023/01/09 08:21:38;;;;;;;;;6.00;6.00;;;;;7.23;83.05;99319.16;5053711;28;10645;-67
2023/01/09 08:24:05;;;;;;;;;8.00;5.00;;;;;7.26;82.86;99329.47;5053640;28;10783;-67
2023/01/09 08:26:31;;;;;;;;;4.50;4.50;;;;;7.30;82.46;99329.88;5053492;28;10686;-67
2023/01/09 08:28:57;;;;;;;;;2.00;2.00;;;;;7.34;82.89;99342.63;5069002;28;10653;-67
2023/01/09 08:31:24;;;;;;;;;6.50;6.50;;;;;7.34;82.60;99345.28;5054892;28;10666;-69
2023/01/09 08:33:50;;;;;;;;;5.50;5.50;;;;;7.35;82.34;99354.97;5070444;28;10759;-68
2023/01/09 08:36:17;;;;;;;;;7.00;7.00;;;;;7.35;83.22;99356.81;5073268;28;10735;-69
2023/01/09 08:38:43;;;;;;;;;6.75;5.00;;;;;7.36;82.93;99369.97;5058710;28;10731;-67
2023/01/09 08:49:26;;;;;;;;;9.50;9.00;;;;;7.43;83.00;99394.06;5052933;28;10790;-67
2023/01/09 08:51:52;;;;;;;;;10.25;7.00;;;;;7.43;83.11;99402.09;5053444;28;11448;-68
2023/01/09 08:54:19;;;;;;;;;9.75;9.75;;;;;7.37;83.50;99402.91;5053273;28;11449;-66
2023/01/09 08:56:45;;;;;;;;;16.00;12.25;;;;;7.38;82.56;99416.13;5061601;28;10770;-68
2023/01/09 08:59:12;;;;;;;;;11.75;8.75;;;;;7.32;83.36;99414.25;5072249;28;11069;-68
2023/01/09 09:01:38;;;;;;;;;13.00;11.00;;;;;7.32;83.75;99419.59;5072181;28;11675;-68
2023/01/09 09:04:05;;;;;;;;;14.00;10.50;;;;;7.33;83.72;99423.97;5072361;28;11199;-67
2023/01/09 09:06:32;;;;;;;;;10.00;10.00;;;;;7.33;83.66;99426.63;5072911;28;11283;-68
2023/01/09 09:09:02;;;;;;;;;7.00;7.00;;;;;7.35;84.25;99437.94;5069939;28;10928;-68
2023/01/09 09:11:29;;;;;;;;;9.00;7.25;;;;;7.37;83.53;99449.28;5072859;28;10736;-68
2023/01/09 09:13:56;;;;;;;;;12.75;10.25;;;;;7.36;83.85;99450.28;5056051;28;10973;-69
2023/01/09 09:16:24;;;;;;;;;5.75;5.75;;;;;7.39;83.84;99459.75;5054981;28;11139;-68
2023/01/09 09:18:51;;;;;;;;;8.00;7.00;;;;;7.39;84.12;99457.09;5070979;28;10879;-68
2023/01/09 09:21:19;;;;;;;;;11.00;7.00;;;;;7.36;84.26;99469.03;5072520;28;10876;-69
2023/01/09 09:23:45;;;;;;;;;5.50;4.75;;;;;7.38;84.78;99471.50;5057321;28;10836;-69
2023/01/09 09:26:12;;;;;;;;;8.25;7.75;;;;;7.42;84.13;99481.59;5052296;28;10941;-69
2023/01/09 09:28:38;;;;;;;;;5.25;5.25;;;;;7.44;84.91;99476.03;5066308;28;10904;-68
2023/01/09 09:31:05;;;;;;;;;8.25;6.50;;;;;7.46;84.29;99479.34;5061528;28;10773;-66
2023/01/09 09:33:32;;;;;;;;;5.00;3.50;;;;;7.48;84.16;99487.97;5052864;28;10768;-68
2023/01/09 09:35:58;;;;;;;;;2.00;2.00;;;;;7.52;85.05;99499.91;5051816;28;10651;-68
2023/01/09 09:38:25;;;;;;;;;1.00;1.00;;;;;7.59;84.56;99500.72;5069291;28;10720;-69
2023/01/09 09:44:41;;;;;;;;;1.50;1.50;;;;;7.55;84.02;99512.88;5069945;28;11297;-68
2023/01/09 09:44:45;;;;;;;;;1.75;1.75;;;;;7.53;83.97;99506.91;5071424;28;10586;-62
2023/01/09 09:47:40;;;;;;;;;1.75;1.75;;;;;7.53;83.62;99522.16;5071653;28;10655;-66
2023/01/09 09:50:27;;;;;;;;;1.75;1.75;;;;;7.49;84.34;99521.72;5072395;28;10561;-69
2023/01/09 09:53:02;;;;;;;;;1.75;1.25;;;;;7.50;84.34;99530.63;5064263;28;10575;-67
2023/01/09 09:55:32;;;;;;;;;1.00;1.00;;;;;7.53;84.19;99538.22;5050714;28;10432;-68
2023/01/09 09:58:03;;;;;;;;;1.00;1.00;;;;;7.53;84.47;99539.03;5060135;28;10665;-68
2023/01/09 10:00:30;;;;;;;;;2.00;1.00;;;;;7.56;84.35;99546.66;5057669;28;11255;-66
2023/01/09 10:03:08;;;;;;;;;1.00;1.00;;;;;7.58;84.02;99559.88;5051618;28;10754;-68
2023/01/09 10:05:46;;;;;;;;;2.00;1.00;;;;;7.57;84.47;99563.56;5051392;28;10621;-68
2023/01/09 10:08:33;;;;;;;;;0.25;0.25;;;;;7.61;84.26;99570.97;5061846;28;10473;-69
2023/01/09 10:11:01;;;;;;;;;1.00;1.00;;;;;7.61;84.09;99578.19;5071439;28;10335;-69
2023/01/09 10:17:09;;;;;;;;;1.00;0.00;;;;;7.68;83.98;99592.41;5061022;28;10502;-67
2023/01/09 10:19:57;;;;;;;;;0.00;0.00;;;;;7.69;84.19;99599.41;4989876;28;10563;-68
2023/01/09 10:22:45;;;;;;;;;1.00;0.00;;;;;7.69;83.97;99600.22;4990353;28;11187;-67
2023/01/09 10:25:33;;;;;;;;;4.00;1.00;;;;;7.65;84.56;99606.19;5036845;28;10392;-68
2023/01/09 10:28:14;;;;;;;;;2.50;0.75;;;;;7.71;83.79;99604.56;5060034;28;10516;-68
2023/01/09 10:30:43;;;;;;;;;1.00;1.00;;;;;7.77;83.52;99609.91;5064854;28;10404;-68
2023/01/09 10:33:47;;;;;;;;;1.50;1.00;;;;;7.81;83.47;99621.84;5051692;28;10392;-68
2023/01/09 10:36:32;;;;;;;;;0.00;0.00;;;;;7.75;83.83;99621.88;5051247;28;10548;-68
2023/01/09 10:39:03;;;;;;;;;2.00;1.00;;;;;7.71;84.10;99620.63;5051648;28;10335;-67
2023/01/09 10:41:39;;;;;;;;;1.00;1.00;;;;;7.75;83.34;99629.91;5050939;28;10458;-68
2023/01/09 10:44:15;;;;;;;;;2.00;1.00;;;;;7.74;83.30;99637.13;5050866;28;10476;-68
2023/01/09 10:46:47;;;;;;;;;0.75;0.75;;;;;7.74;82.90;99647.84;5051016;28;10394;-67
2023/01/09 10:49:18;;;;;;;;;1.00;1.00;;;;;7.75;82.65;99646.81;5068397;28;10202;-67
2023/01/09 10:51:55;;;;;;;;;0.75;0.75;;;;;7.76;82.87;99650.31;5066716;28;10434;-67
2023/01/09 10:54:22;;;;;;;;;1.00;1.00;;;;;7.80;83.15;99656.91;5065340;28;10445;-66
2023/01/09 10:57:02;;;;;;;;;1.25;0.75;;;;;7.82;82.89;99655.69;5070910;28;10342;-67
2023/01/09 10:59:29;;;;;;;;;1.00;1.00;;;;;7.82;81.99;99663.72;5050723;28;10300;-67
2023/01/09 11:01:56;;;;;;;;;1.50;1.00;;;;;7.83;82.62;99664.53;5050688;28;10287;-67
2023/01/09 11:04:28;;;;;;;;;1.00;1.00;;;;;7.91;82.91;99669.69;5066931;28;10281;-68
2023/01/09 11:07:17;;;;;;;;;4.00;0.00;;;;;7.99;82.77;99676.69;5050858;28;11034;-67
2023/01/09 11:10:00;;;;;;;;;0.50;0.50;;;;;8.03;81.94;99680.63;5053518;28;10355;-66
2023/01/09 11:12:32;;;;;;;;;3.00;1.00;;;;;8.00;81.75;99684.53;5051230;28;10371;-67
2023/01/09 11:15:27;;;;;;;;;0.00;0.00;;;;;8.03;82.27;99685.97;5050622;28;10423;-67
2023/01/09 11:18:16;;;;;;;;;0.00;0.00;;;;;8.04;81.71;99691.13;5050682;28;10484;-66
2023/01/09 11:20:42;;;;;;;;;2.25;1.00;;;;;8.06;80.77;99685.53;5050561;28;10326;-67
2023/01/09 11:23:24;;;;;;;;;0.00;0.00;;;;;8.09;81.13;99693.19;5059915;28;10190;-68
2023/01/09 11:25:57;;;;;;;;;1.50;0.50;;;;;8.09;80.96;99694.00;5069954;28;10343;-69
2023/01/09 11:28:23;;;;;;;;;2.00;1.75;;;;;8.12;81.00;99700.81;5054280;28;10265;-69
2023/01/09 11:30:53;;;;;;;;;1.00;0.50;;;;;8.11;81.47;99696.50;5050334;28;10332;-67
2023/01/09 11:33:23;;;;;;;;;2.50;1.00;;;;;8.16;81.14;99699.38;5061348;28;11027;-65
2023/01/09 11:36:09;;;;;;;;;1.00;1.00;;;;;8.19;80.96;99693.59;5069999;28;10262;-65
2023/01/09 11:38:55;;;;;;;;;1.75;1.25;;;;;8.15;80.36;99706.59;5068777;28;10340;-66
2023/01/09 11:41:26;;;;;;;;;5.25;2.00;;;;;8.18;80.63;99697.28;5070216;28;10467;-65
2023/01/09 11:43:57;;;;;;;;;4.75;4.00;;;;;8.16;80.44;99705.56;5063806;28;10359;-67
2023/01/09 11:46:33;;;;;;;;;5.00;2.50;;;;;8.20;80.31;99705.16;5070013;28;10435;-66
2023/01/09 11:49:03;;;;;;;;;0.50;0.50;;;;;8.23;80.50;99716.28;5069819;28;10554;-66
2023/01/09 11:51:33;;;;;;;;;4.00;4.00;;;;;8.27;80.20;99722.06;5070149;28;10354;-67
2023/01/09 11:54:11;;;;;;;;;1.25;1.25;;;;;8.30;80.17;99733.19;5053077;28;10563;-67
2023/01/09 11:56:38;;;;;;;;;4.50;4.00;;;;;8.27;80.12;99732.78;5050264;28;10290;-66
2023/01/09 11:59:13;;;;;;;;;2.00;2.00;;;;;8.27;79.79;99743.50;5067461;28;11131;-67
2023/01/09 12:01:46;;;;;;;;;2.00;2.00;;;;;8.25;80.00;99749.06;5070341;28;10451;-67
2023/01/09 12:04:27;;;;;;;;;6.50;5.00;;;;;8.28;80.37;99739.78;5069106;28;11254;-65
2023/01/09 12:07:13;;;;;;;;;2.25;2.00;;;;;8.28;80.60;99753.19;5070556;28;10557;-66
2023/01/09 12:09:56;;;;;;;;;4.25;3.50;;;;;8.23;80.20;99748.47;5050159;28;10459;-67
2023/01/09 12:12:44;;;;;;;;;4.00;2.00;;;;;8.23;79.83;99758.34;5053434;28;11143;-66